Time;durP1;ratioP1;P1;durP2;ratioP2;P2;SDS_P1;SDS_P2;PMS_P1;PMS_P2;Temp;Humidity;BMP_temperature;BMP_pressure;BME280_temperature;BME280_humidity;BME280_pressure;Samples;Min_cycle;Max_cycle;Signal;HPM_P1;HPM_P2
2020/12/20 00:00:51;;;;;;;61.13;18.38;;;;;;;2.37;95.80;100777.84;3481890;28;20064;-56
2020/12/20 00:02:32;;;;;;;67.25;18.80;;;;;;;2.36;95.92;100787.22;3472290;28;20441;-56
2020/12/20 00:04:14;;;;;;;61.85;18.30;;;;;;;2.38;95.74;100784.72;3481903;28;20049;-56
2020/12/20 00:05:56;;;;;;;69.50;19.30;;;;;;;2.38;95.98;100785.63;3471338;28;20056;-58
2020/12/20 00:07:37;;;;;;;52.83;17.55;;;;;;;2.39;95.86;100789.06;3482046;28;20072;-56
2020/12/20 00:09:21;;;;;;;63.08;16.85;;;;;;;2.40;96.05;100788.28;3472174;28;20148;-57
2020/12/20 00:11:04;;;;;;;55.30;15.23;;;;;;;2.39;95.66;100792.50;3468812;28;20072;-44
2020/12/20 00:12:45;;;;;;;54.78;17.05;;;;;;;2.40;96.10;100796.84;3468516;28;20041;-47
2020/12/20 00:14:27;;;;;;;59.40;17.45;;;;;;;2.39;95.91;100791.63;3482195;28;20076;-47
2020/12/20 00:16:09;;;;;;;61.40;16.45;;;;;;;2.40;95.65;100796.84;3471533;28;20081;-46
2020/12/20 00:17:50;;;;;;;61.22;17.20;;;;;;;2.40;95.68;100796.84;3475421;28;20041;-45
2020/12/20 00:19:33;;;;;;;63.78;17.58;;;;;;;2.39;95.66;100795.06;3470898;28;20054;-45
2020/12/20 00:21:16;;;;;;;62.33;19.25;;;;;;;2.39;95.60;100791.63;3477349;28;20103;-47
2020/12/20 00:22:57;;;;;;;59.83;17.08;;;;;;;2.40;95.93;100790.84;3472637;28;20049;-56
2020/12/20 00:24:41;;;;;;;71.35;18.27;;;;;;;2.38;95.88;100789.84;3478027;28;20080;-57
2020/12/20 00:26:22;;;;;;;68.10;18.45;;;;;;;2.38;95.89;100783.06;3469073;28;20143;-57
2020/12/20 00:28:04;;;;;;;64.25;17.08;;;;;;;2.38;95.78;100783.06;3475886;28;20076;-44
2020/12/20 00:29:46;;;;;;;50.92;18.70;;;;;;;2.39;95.73;100789.94;3474075;28;20521;-45
2020/12/20 00:31:27;;;;;;;52.60;16.02;;;;;;;2.39;95.86;100784.81;3475438;28;20092;-45
2020/12/20 00:33:09;;;;;;;60.67;18.85;;;;;;;2.41;95.92;100787.50;3470471;28;20414;-45
2020/12/20 00:34:50;;;;;;;62.92;19.05;;;;;;;2.39;95.81;100787.38;3472888;28;20065;-45
2020/12/20 00:36:32;;;;;;;65.38;19.10;;;;;;;2.39;95.66;100789.94;3468291;28;20060;-46
2020/12/20 00:38:14;;;;;;;69.63;20.00;;;;;;;2.39;95.71;100783.94;3475681;28;20049;-44
2020/12/20 00:39:56;;;;;;;60.72;16.98;;;;;;;2.38;95.79;100789.84;3470167;28;20053;-44
2020/12/20 00:41:37;;;;;;;63.35;17.30;;;;;;;2.38;95.80;100787.28;3475916;28;20053;-45
2020/12/20 00:43:19;;;;;;;53.80;16.70;;;;;;;2.38;95.49;100793.31;3470003;28;20045;-46
2020/12/20 00:45:03;;;;;;;69.57;18.60;;;;;;;2.37;95.45;100788.97;3477584;28;20076;-56
2020/12/20 00:46:45;;;;;;;53.85;16.23;;;;;;;2.38;95.43;100789.84;3469823;28;20417;-57
2020/12/20 00:48:35;;;;;;;62.30;19.30;;;;;;;2.37;95.45;100786.41;3476733;28;20048;-45
2020/12/20 00:50:16;;;;;;;64.90;18.52;;;;;;;2.36;95.76;100782.09;3473375;28;20075;-45
2020/12/20 00:51:59;;;;;;;58.83;19.65;;;;;;;2.38;95.43;100787.28;3475169;28;20055;-45
2020/12/20 00:53:41;;;;;;;62.58;17.25;;;;;;;2.37;95.37;100788.97;3472974;28;20046;-44
2020/12/20 00:55:22;;;;;;;63.25;19.20;;;;;;;2.36;95.42;100783.75;3472077;28;20057;-45
2020/12/20 00:57:04;;;;;;;62.28;20.60;;;;;;;2.36;95.54;100783.75;3474583;28;20041;-45
2020/12/20 00:58:45;;;;;;;78.10;21.80;;;;;;;2.35;95.50;100785.44;3475164;28;20060;-45
2020/12/20 01:00:27;;;;;;;64.50;19.95;;;;;;;2.35;95.54;100785.44;3470752;28;20049;-45
2020/12/20 01:02:09;;;;;;;69.80;19.17;;;;;;;2.35;95.37;100782.00;3476026;28;20411;-45
2020/12/20 01:03:50;;;;;;;63.33;17.83;;;;;;;2.35;95.58;100779.44;3473045;28;20422;-45
2020/12/20 01:05:32;;;;;;;56.47;18.45;;;;;;;2.36;95.63;100783.75;3475607;28;20541;-45
2020/12/20 01:07:14;;;;;;;65.85;18.40;;;;;;;2.36;95.43;100784.66;3472362;28;20046;-56
2020/12/20 01:08:55;;;;;;;57.55;17.58;;;;;;;2.36;95.44;100784.66;3475329;28;20049;-45
2020/12/20 01:10:36;;;;;;;60.05;18.23;;;;;;;2.37;95.59;100786.41;3472522;28;20061;-46
2020/12/20 01:12:18;;;;;;;56.42;18.05;;;;;;;2.36;95.73;100788.88;3474795;28;20075;-45
2020/12/20 01:14:01;;;;;;;47.42;15.65;;;;;;;2.33;95.41;100793.00;3473631;28;20156;-45
2020/12/20 01:15:43;;;;;;;45.88;15.38;;;;;;;2.32;95.56;100791.25;3472123;28;20049;-45
2020/12/20 01:17:25;;;;;;;41.72;14.18;;;;;;;2.31;95.47;100786.91;3471865;28;20045;-45
2020/12/20 01:19:06;;;;;;;53.97;16.13;;;;;;;2.31;95.52;100797.16;3473760;28;20049;-57
2020/12/20 01:20:47;;;;;;;44.65;14.98;;;;;;;2.31;95.27;100789.47;3471571;28;20045;-44
2020/12/20 01:22:30;;;;;;;51.88;16.15;;;;;;;2.31;95.57;100783.47;3475027;28;20080;-45
2020/12/20 01:24:12;;;;;;;47.30;15.77;;;;;;;2.31;95.32;100784.34;3473952;28;20045;-44
2020/12/20 01:25:53;;;;;;;41.55;15.02;;;;;;;2.32;95.34;100783.56;3474236;28;20054;-45
2020/12/20 01:27:35;;;;;;;48.70;15.60;;;;;;;2.32;95.61;100786.13;3472838;28;20550;-45
2020/12/20 01:29:17;;;;;;;41.58;15.57;;;;;;;2.32;95.47;100790.34;3471724;28;20061;-47
2020/12/20 01:30:59;;;;;;;53.20;15.55;;;;;;;2.32;95.44;100793.81;3473590;28;20041;-45
2020/12/20 01:32:41;;;;;;;47.83;16.73;;;;;;;2.31;95.61;100789.47;3474741;28;20124;-45
2020/12/20 01:34:22;;;;;;;52.05;15.65;;;;;;;2.32;95.28;100798.94;3473771;28;20049;-57
2020/12/20 01:36:04;;;;;;;52.10;16.30;;;;;;;2.31;95.38;100794.59;3474133;28;20103;-56
2020/12/20 01:37:46;;;;;;;53.63;16.10;;;;;;;2.31;95.25;100792.03;3471949;28;20509;-57
2020/12/20 01:39:27;;;;;;;41.55;15.68;;;;;;;2.31;95.42;100793.72;3474608;28;20069;-57
2020/12/20 01:41:09;;;;;;;45.65;15.60;;;;;;;2.30;95.43;100792.78;3473224;28;20489;-57
2020/12/20 01:42:55;;;;;;;48.03;14.88;;;;;;;2.30;95.37;100794.47;3474940;28;20080;-57
2020/12/20 01:44:39;;;;;;;44.85;14.95;;;;;;;2.29;95.24;100795.28;3473085;28;20052;-57
2020/12/20 01:46:22;;;;;;;53.03;16.20;;;;;;;2.28;95.49;100790.94;3475075;28;20057;-45
2020/12/20 01:48:04;;;;;;;46.72;15.68;;;;;;;2.29;95.26;100793.59;3472049;28;20455;-57
2020/12/20 01:49:46;;;;;;;53.38;15.35;;;;;;;2.29;95.42;100793.59;3474691;28;20049;-57
2020/12/20 01:51:28;;;;;;;47.25;15.45;;;;;;;2.29;95.27;100796.16;3472921;28;20075;-45
2020/12/20 01:53:11;;;;;;;42.83;15.50;;;;;;;2.30;95.09;100794.47;3472756;28;20501;-57
2020/12/20 01:54:56;;;;;;;48.25;14.82;;;;;;;2.29;95.29;100793.59;3473009;28;20045;-57
2020/12/20 01:56:38;;;;;;;45.92;15.00;;;;;;;2.30;95.05;100785.13;3472819;28;20053;-56
2020/12/20 01:58:20;;;;;;;45.22;14.27;;;;;;;2.30;95.45;100794.47;3475956;28;20080;-57
2020/12/20 02:00:03;;;;;;;52.08;16.90;;;;;;;2.29;95.37;100785.06;3468750;28;20053;-56
2020/12/20 02:01:45;;;;;;;46.03;15.35;;;;;;;2.30;95.36;100792.78;3473973;28;20048;-44
2020/12/20 02:03:30;;;;;;;45.90;15.20;;;;;;;2.30;95.11;100790.25;3472341;28;20439;-57
2020/12/20 02:05:11;;;;;;;54.03;16.20;;;;;;;2.31;95.07;100793.72;3475339;28;20059;-57
2020/12/20 02:06:53;;;;;;;35.72;14.38;;;;;;;2.30;95.19;100799.59;3472797;28;20049;-57
2020/12/20 02:08:35;;;;;;;41.55;12.85;;;;;;;2.30;95.23;100797.03;3474831;28;20529;-45
2020/12/20 02:10:18;;;;;;;43.78;15.32;;;;;;;2.30;95.34;100794.47;3472055;28;20240;-46
2020/12/20 02:12:03;;;;;;;45.05;15.07;;;;;;;2.30;94.97;100794.47;3474709;28;20048;-45
2020/12/20 02:13:46;;;;;;;45.05;13.85;;;;;;;2.29;95.27;100792.72;3468833;28;20067;-45
2020/12/20 02:15:28;;;;;;;50.08;15.13;;;;;;;2.28;94.99;100793.50;3474453;28;20095;-47
2020/12/20 02:17:10;;;;;;;52.80;15.23;;;;;;;2.27;95.36;100800.31;3472475;28;20057;-57
2020/12/20 02:18:51;;;;;;;55.60;14.73;;;;;;;2.27;95.23;100797.75;3473574;28;20052;-57
2020/12/20 02:20:33;;;;;;;43.85;14.07;;;;;;;2.29;94.98;100801.28;3471986;28;20060;-57
2020/12/20 02:22:15;;;;;;;52.92;16.02;;;;;;;2.29;95.31;100801.28;3474542;28;20486;-57
2020/12/20 02:23:57;;;;;;;41.88;14.35;;;;;;;2.29;95.30;100792.72;3471066;28;20121;-57
2020/12/20 02:25:39;;;;;;;39.35;14.23;;;;;;;2.30;95.20;100804.72;3476455;28;20053;-57
2020/12/20 02:27:21;;;;;;;41.00;14.50;;;;;;;2.30;95.27;100804.72;3469441;28;20049;-57
2020/12/20 02:29:03;;;;;;;40.08;13.65;;;;;;;2.29;95.18;100806.41;3471748;28;20552;-57
2020/12/20 02:30:45;;;;;;;47.10;13.68;;;;;;;2.30;95.05;100805.59;3472362;28;20075;-45
2020/12/20 02:32:26;;;;;;;41.88;13.80;;;;;;;2.30;95.05;100800.47;3455935;28;20065;-44
2020/12/20 02:34:09;;;;;;;46.85;15.73;;;;;;;2.30;95.25;100797.03;3465770;28;20038;-44
2020/12/20 02:35:51;;;;;;;47.33;13.80;;;;;;;2.30;95.05;100794.47;3483595;28;20077;-57
2020/12/20 02:37:33;;;;;;;45.70;14.52;;;;;;;2.30;95.04;100797.03;3472939;28;20108;-45
2020/12/20 02:39:15;;;;;;;44.38;13.65;;;;;;;2.30;95.21;100799.59;3483211;28;20516;-57
2020/12/20 02:40:57;;;;;;;46.47;14.82;;;;;;;2.28;95.29;100790.94;3472560;28;20050;-44
2020/12/20 02:42:38;;;;;;;40.72;13.15;;;;;;;2.30;95.28;100804.72;3483137;28;20413;-45
2020/12/20 02:44:20;;;;;;;49.30;15.93;;;;;;;2.29;95.02;100802.97;3471839;28;20048;-57
2020/12/20 02:46:02;;;;;;;53.92;15.45;;;;;;;2.28;94.93;100802.06;3483343;28;20084;-57
2020/12/20 02:47:44;;;;;;;46.95;15.50;;;;;;;2.27;95.08;100794.28;3471446;28;20046;-45
2020/12/20 02:49:25;;;;;;;48.13;15.52;;;;;;;2.27;95.03;100801.94;3482974;28;20076;-45
2020/12/20 02:51:06;;;;;;;47.78;16.23;;;;;;;2.27;95.22;100802.88;3472443;28;20045;-45
2020/12/20 02:52:48;;;;;;;46.97;14.40;;;;;;;2.27;95.04;100807.06;3483259;28;20048;-44
2020/12/20 02:54:30;;;;;;;44.60;14.95;;;;;;;2.28;95.24;100811.41;3472530;28;20414;-56
2020/12/20 02:56:12;;;;;;;46.75;15.18;;;;;;;2.29;95.16;100814.09;3482299;28;20563;-44
2020/12/20 02:57:53;;;;;;;45.53;13.57;;;;;;;2.27;95.26;100802.88;3468254;28;20147;-45
2020/12/20 02:59:35;;;;;;;53.00;17.45;;;;;;;2.29;94.99;100808.09;3455655;28;20427;-46
2020/12/20 03:01:16;;;;;;;55.50;15.80;;;;;;;2.29;95.02;100808.09;3469078;28;20045;-45
2020/12/20 03:02:58;;;;;;;52.20;15.57;;;;;;;2.29;95.17;100805.53;3483195;28;20045;-44
2020/12/20 03:04:39;;;;;;;46.22;14.25;;;;;;;2.29;95.37;100805.53;3471538;28;20494;-44
2020/12/20 03:06:21;;;;;;;43.55;13.70;;;;;;;2.28;95.41;100808.88;3483231;28;20082;-45
2020/12/20 03:08:04;;;;;;;44.20;15.90;;;;;;;2.27;95.00;100807.97;3471123;28;20072;-44
2020/12/20 03:09:45;;;;;;;47.83;16.23;;;;;;;2.26;94.82;100805.31;3483028;28;20049;-57
2020/12/20 03:11:27;;;;;;;45.15;14.15;;;;;;;2.24;95.09;100807.78;3472570;28;20056;-57
2020/12/20 03:13:08;;;;;;;43.30;14.73;;;;;;;2.23;94.93;100805.13;3483127;28;20076;-55
2020/12/20 03:14:50;;;;;;;45.80;14.68;;;;;;;2.22;94.92;100805.88;3471287;28;20107;-57
2020/12/20 03:16:31;;;;;;;43.45;14.00;;;;;;;2.19;95.15;100798.91;3477622;28;20084;-44
2020/12/20 03:18:13;;;;;;;38.67;13.32;;;;;;;2.17;94.89;100805.59;3468737;28;20111;-46
2020/12/20 03:20:07;;;;;;;42.80;13.70;;;;;;;2.18;95.12;100809.91;3469046;28;20099;-45
2020/12/20 03:21:48;;;;;;;40.20;12.52;;;;;;;2.17;94.95;100803.03;3472488;28;20091;-45
2020/12/20 03:23:30;;;;;;;39.38;13.80;;;;;;;2.18;94.90;100803.91;3476395;28;20096;-56
2020/12/20 03:25:12;;;;;;;44.30;14.40;;;;;;;2.18;95.18;100811.59;3472733;28;20061;-45
2020/12/20 03:26:53;;;;;;;41.03;12.85;;;;;;;2.18;95.13;100819.28;3481413;28;20049;-45
2020/12/20 03:28:34;;;;;;;47.38;13.95;;;;;;;2.17;95.16;100817.53;3472770;28;20072;-45
2020/12/20 03:30:16;;;;;;;47.97;15.63;;;;;;;2.17;95.21;100814.97;3481080;28;20084;-45
2020/12/20 03:31:58;;;;;;;57.78;16.55;;;;;;;2.17;94.91;100825.22;3469467;28;20056;-44
2020/12/20 03:33:39;;;;;;;53.22;16.10;;;;;;;2.16;95.19;100819.19;3468733;28;20100;-57
2020/12/20 03:35:21;;;;;;;67.68;19.65;;;;;;;2.16;95.27;100829.41;3474396;28;20052;-45
2020/12/20 03:37:03;;;;;;;58.45;17.63;;;;;;;2.17;95.09;100825.22;3481136;28;20056;-57
2020/12/20 03:38:45;;;;;;;66.30;18.33;;;;;;;2.18;95.23;100826.97;3474626;28;20060;-57
2020/12/20 03:40:26;;;;;;;70.90;20.65;;;;;;;2.19;94.99;100831.31;3480361;28;20440;-56
2020/12/20 03:42:08;;;;;;;51.53;17.83;;;;;;;2.17;95.13;100827.75;3473512;28;20052;-58
2020/12/20 03:43:49;;;;;;;57.30;18.80;;;;;;;2.16;95.29;100834.53;3480143;28;20053;-57
2020/12/20 03:45:31;;;;;;;61.42;18.05;;;;;;;2.17;95.25;100848.25;3474985;28;20413;-57
2020/12/20 03:47:12;;;;;;;52.00;17.27;;;;;;;2.16;95.25;100841.34;3480036;28;20053;-58
2020/12/20 03:48:54;;;;;;;70.65;19.38;;;;;;;2.15;94.92;100853.25;3473967;28;20052;-46
2020/12/20 03:50:35;;;;;;;62.00;16.90;;;;;;;2.13;95.20;100848.03;3479754;28;20091;-45
2020/12/20 03:52:16;;;;;;;55.92;17.20;;;;;;;2.13;95.22;100845.47;3474154;28;20494;-45
2020/12/20 03:53:58;;;;;;;54.20;18.05;;;;;;;2.14;95.39;100848.91;3472072;28;20156;-44
2020/12/20 03:55:40;;;;;;;50.85;16.33;;;;;;;2.14;95.17;100847.22;3468305;28;20107;-45
2020/12/20 03:57:21;;;;;;;50.42;16.45;;;;;;;2.15;95.51;100845.56;3468176;28;20077;-44
2020/12/20 03:59:03;;;;;;;54.40;17.27;;;;;;;2.15;95.35;100845.56;3469187;28;20084;-44
2020/12/20 04:00:44;;;;;;;49.45;15.73;;;;;;;2.16;95.34;100852.44;3468208;28;20077;-57
2020/12/20 04:02:26;;;;;;;52.97;15.63;;;;;;;2.17;95.29;100844.00;3475203;28;20041;-45
2020/12/20 04:04:07;;;;;;;56.63;15.75;;;;;;;2.18;95.54;100850.88;3479011;28;24819;-58
2020/12/20 04:05:48;;;;;;;47.47;15.55;;;;;;;2.18;95.18;100853.44;3474778;28;20321;-56
2020/12/20 04:07:30;;;;;;;48.55;15.75;;;;;;;2.19;95.19;100857.78;3478902;28;20053;-45
2020/12/20 04:09:12;;;;;;;47.95;15.00;;;;;;;2.19;95.25;100859.47;3475623;28;20041;-45
2020/12/20 04:10:54;;;;;;;59.83;17.63;;;;;;;2.20;95.22;100856.09;3478549;28;20088;-58
2020/12/20 04:12:35;;;;;;;55.55;16.38;;;;;;;2.19;95.08;100859.47;3474685;28;20065;-45
2020/12/20 04:14:16;;;;;;;53.20;17.27;;;;;;;2.19;95.33;100870.59;3478257;28;20060;-45
2020/12/20 04:15:58;;;;;;;55.78;16.52;;;;;;;2.18;95.33;100866.22;3475082;28;20057;-45
2020/12/20 04:17:40;;;;;;;57.90;18.33;;;;;;;2.19;95.34;100870.59;3478224;28;20089;-57
2020/12/20 04:19:21;;;;;;;51.45;16.42;;;;;;;2.20;95.20;100876.59;3473817;28;20080;-57
2020/12/20 04:21:02;;;;;;;52.22;16.95;;;;;;;2.21;95.22;100881.81;3473687;28;20045;-57
2020/12/20 04:22:44;;;;;;;52.42;17.15;;;;;;;2.20;95.05;100877.50;3473958;28;20053;-58
2020/12/20 04:24:26;;;;;;;45.90;14.10;;;;;;;2.19;95.14;100878.25;3478050;28;20057;-57
2020/12/20 04:26:07;;;;;;;51.03;15.90;;;;;;;2.19;95.41;100880.81;3474522;28;20049;-57
2020/12/20 04:27:50;;;;;;;43.30;15.43;;;;;;;2.19;95.20;100879.94;3478842;28;20045;-44
2020/12/20 04:29:31;;;;;;;47.47;15.20;;;;;;;2.20;95.19;100885.16;3475740;28;20099;-44
2020/12/20 04:31:13;;;;;;;45.80;13.70;;;;;;;2.20;95.02;100882.63;3477274;28;20115;-45
2020/12/20 04:32:55;;;;;;;41.05;12.93;;;;;;;2.20;95.34;100885.16;3475869;28;20049;-45
2020/12/20 04:34:36;;;;;;;47.63;14.35;;;;;;;2.22;95.23;100885.25;3469364;28;20546;-44
2020/12/20 04:36:18;;;;;;;40.60;14.63;;;;;;;2.21;95.14;100884.38;3475949;28;20083;-58
2020/12/20 04:38:00;;;;;;;39.13;13.50;;;;;;;2.22;95.19;100885.25;3476751;28;20054;-45
2020/12/20 04:39:43;;;;;;;40.92;13.50;;;;;;;2.23;95.25;100881.91;3476229;28;20087;-44
2020/12/20 04:41:25;;;;;;;45.80;14.48;;;;;;;2.23;95.31;100890.47;3476417;28;20045;-45
2020/12/20 04:43:08;;;;;;;44.53;13.43;;;;;;;2.24;95.28;100891.38;3476672;28;20060;-58
2020/12/20 04:44:50;;;;;;;40.83;13.25;;;;;;;2.23;95.28;100893.03;3475989;28;20112;-57
2020/12/20 04:46:32;;;;;;;39.50;13.38;;;;;;;2.23;95.08;100902.38;3476732;28;20051;-44
2020/12/20 04:48:15;;;;;;;42.38;13.55;;;;;;;2.22;95.19;100900.59;3475486;28;20057;-45
2020/12/20 04:49:57;;;;;;;39.80;13.25;;;;;;;2.22;95.28;100900.59;3476316;28;20045;-44
2020/12/20 04:51:40;;;;;;;46.38;14.70;;;;;;;2.22;95.15;100898.03;3475096;28;20069;-57
2020/12/20 04:53:22;;;;;;;46.73;13.93;;;;;;;2.23;95.36;100903.28;3478825;28;20084;-57
2020/12/20 04:55:04;;;;;;;42.60;14.25;;;;;;;2.22;94.99;100904.06;3475802;28;20057;-57
2020/12/20 04:56:46;;;;;;;43.83;14.25;;;;;;;2.21;95.15;100904.84;3478146;28;20524;-57
2020/12/20 04:58:27;;;;;;;53.15;16.50;;;;;;;2.19;95.23;100898.75;3474499;28;20057;-45
2020/12/20 05:00:09;;;;;;;67.30;18.65;;;;;;;2.17;95.12;100896.88;3478292;28;20057;-44
2020/12/20 05:01:50;;;;;;;47.78;14.40;;;;;;;2.16;94.97;100903.66;3473951;28;20073;-57
2020/12/20 05:03:32;;;;;;;45.25;15.88;;;;;;;2.16;94.93;100905.31;3478472;28;20048;-57
2020/12/20 05:05:14;;;;;;;51.45;16.17;;;;;;;2.16;95.30;100897.66;3475452;28;20485;-57
2020/12/20 05:06:56;;;;;;;42.60;14.57;;;;;;;2.15;95.14;100899.34;3480395;28;20056;-45
2020/12/20 05:08:37;;;;;;;50.00;16.50;;;;;;;2.18;95.25;100906.31;3476063;28;20050;-44
2020/12/20 05:10:19;;;;;;;47.70;15.80;;;;;;;2.18;95.42;100901.19;3481134;28;20064;-45
2020/12/20 05:12:01;;;;;;;45.03;15.32;;;;;;;2.18;95.10;100908.88;3476888;28;20056;-45
2020/12/20 05:13:42;;;;;;;56.85;17.27;;;;;;;2.18;95.08;100904.63;3481100;28;20060;-57
2020/12/20 05:15:25;;;;;;;53.25;17.55;;;;;;;2.19;95.23;100905.53;3475719;28;20053;-57
2020/12/20 05:17:16;;;;;;;48.97;16.13;;;;;;;2.17;95.12;100895.19;3481388;28;20429;-57
2020/12/20 05:18:59;;;;;;;48.35;16.42;;;;;;;2.17;95.18;100900.31;3467948;28;20691;-57
2020/12/20 05:20:42;;;;;;;52.92;17.20;;;;;;;2.17;95.15;100900.31;3469365;28;20056;-57
2020/12/20 05:22:25;;;;;;;47.17;15.32;;;;;;;2.17;95.41;100892.63;3470279;28;20052;-57
2020/12/20 05:24:25;;;;;;;40.85;14.27;;;;;;;2.18;95.10;100890.94;3484213;28;20083;-58
2020/12/20 05:26:07;;;;;;;43.28;13.05;;;;;;;2.16;95.03;100895.09;3473812;28;20049;-57
2020/12/20 05:27:49;;;;;;;48.63;13.68;;;;;;;2.17;95.17;100897.75;3483877;28;20464;-57
2020/12/20 05:29:30;;;;;;;46.95;13.85;;;;;;;2.17;95.43;100899.44;3472115;28;20103;-57
2020/12/20 05:31:12;;;;;;;35.40;13.30;;;;;;;2.17;95.48;100902.88;3474399;28;20057;-45
2020/12/20 05:32:53;;;;;;;46.20;14.57;;;;;;;2.17;95.43;100900.31;3472714;28;20080;-44
2020/12/20 05:34:35;;;;;;;56.90;13.20;;;;;;;2.18;95.18;100914.00;3484093;28;20103;-45
2020/12/20 05:36:24;;;;;;;36.47;12.93;;;;;;;2.18;95.34;100911.44;3472353;28;20049;-45
2020/12/20 05:38:06;;;;;;;36.20;14.07;;;;;;;2.18;95.25;100914.00;3483333;28;20052;-45
2020/12/20 05:39:47;;;;;;;32.00;13.18;;;;;;;2.18;95.33;100919.13;3473284;28;20068;-44
2020/12/20 05:41:30;;;;;;;43.45;13.70;;;;;;;2.19;95.33;100921.78;3483144;28;20051;-57
2020/12/20 05:43:14;;;;;;;46.03;13.57;;;;;;;2.20;95.36;100927.78;3474279;28;20103;-58
2020/12/20 05:45:08;;;;;;;;;;;;;;;2.20;95.27;100922.66;3482720;28;20048;-58
2020/12/20 05:46:50;;;;;;;38.38;12.70;;;;;;;2.19;95.45;100928.56;3475289;28;19987;-57
2020/12/20 05:48:32;;;;;;;40.30;12.30;;;;;;;2.20;95.32;100928.69;3480254;28;20073;-57
2020/12/20 05:50:14;;;;;;;40.10;12.45;;;;;;;2.21;95.23;100925.31;3470378;28;20061;-57
2020/12/20 05:52:06;;;;;;;31.88;11.80;;;;;;;2.20;95.13;100930.34;3469421;28;20058;-45
2020/12/20 05:53:48;;;;;;;32.40;11.48;;;;;;;2.19;95.23;100933.69;3477211;28;20474;-44
2020/12/20 05:55:36;;;;;;;37.80;13.23;;;;;;;2.17;95.03;100930.16;3478182;28;20072;-45
2020/12/20 05:57:20;;;;;;;34.38;12.65;;;;;;;2.15;95.18;100930.03;3479355;28;20056;-45
2020/12/20 05:59:11;;;;;;;40.10;14.40;;;;;;;2.14;94.99;100928.25;3477554;28;20135;-58
2020/12/20 06:00:55;;;;;;;29.08;12.88;;;;;;;2.14;95.14;100933.38;3480809;28;20053;-56
2020/12/20 06:02:37;;;;;;;35.70;12.00;;;;;;;2.16;95.04;100938.59;3475518;28;20056;-44
2020/12/20 06:04:18;;;;;;;33.45;12.02;;;;;;;2.16;95.33;100941.16;3481723;28;20053;-45
2020/12/20 06:06:01;;;;;;;37.28;13.68;;;;;;;2.16;95.06;100941.16;3475315;28;20095;-45
2020/12/20 06:07:49;;;;;;;33.30;13.27;;;;;;;2.17;95.27;100940.41;3470522;28;20057;-45
2020/12/20 06:09:31;;;;;;;35.10;11.70;;;;;;;2.17;95.35;100942.94;3468342;28;20057;-45
2020/12/20 06:11:19;;;;;;;41.95;13.10;;;;;;;2.17;95.01;100932.72;3483172;28;20061;-46
2020/12/20 06:13:04;;;;;;;35.50;12.30;;;;;;;2.17;95.27;100940.41;3471958;28;20473;-45
2020/12/20 06:14:47;;;;;;;40.55;13.77;;;;;;;2.19;95.22;100941.38;3480857;28;20081;-44
2020/12/20 06:16:31;;;;;;;38.72;13.75;;;;;;;2.19;95.38;100942.25;3468927;28;20099;-57
2020/12/20 06:18:14;;;;;;;40.67;12.90;;;;;;;2.19;95.34;100944.81;3481974;28;20087;-45
2020/12/20 06:19:59;;;;;;;31.75;12.32;;;;;;;2.19;94.99;100947.38;3469549;28;20509;-44
2020/12/20 06:22:01;;;;;;;36.70;13.18;;;;;;;2.19;95.05;100946.50;3469580;28;20064;-58
2020/12/20 06:23:45;;;;;;;34.60;13.60;;;;;;;2.21;95.06;100952.59;3473587;28;20142;-44
2020/12/20 06:25:26;;;;;;;37.80;12.93;;;;;;;2.22;95.13;100959.47;3480507;28;20395;-58
2020/12/20 06:27:13;;;;;;;36.75;13.10;;;;;;;2.23;95.24;100953.59;3476317;28;20541;-45
2020/12/20 06:29:02;;;;;;;40.63;13.70;;;;;;;2.23;95.09;100959.59;3480094;28;20072;-44
2020/12/20 06:30:45;;;;;;;37.78;13.38;;;;;;;2.21;95.21;100961.16;3475835;28;20052;-45
2020/12/20 06:32:34;;;;;;;35.28;12.57;;;;;;;2.24;95.29;100957.94;3479241;28;20073;-57
2020/12/20 06:34:17;;;;;;;32.35;12.65;;;;;;;2.24;95.23;100969.06;3478223;28;20053;-57
2020/12/20 06:36:02;;;;;;;36.35;12.18;;;;;;;2.24;95.28;100961.38;3476923;28;20071;-57
2020/12/20 06:37:44;;;;;;;;;;;;;;;2.26;95.29;100972.59;3478983;28;20087;-45
2020/12/20 06:39:39;;;;;;;33.28;12.73;;;;;;;2.27;95.21;100969.28;3477125;28;19932;-45
2020/12/20 06:41:33;;;;;;;32.83;12.50;;;;;;;2.29;95.18;100967.69;3480245;28;20506;-45
2020/12/20 06:43:26;;;;;;;36.13;11.98;;;;;;;2.30;95.30;100969.47;3472512;28;20466;-57
2020/12/20 06:45:13;;;;;;;37.13;13.52;;;;;;;2.31;95.19;100966.13;3469450;28;20045;-45
2020/12/20 06:46:55;;;;;;;38.47;13.45;;;;;;;2.33;95.26;100974.78;3470592;28;20424;-45
2020/12/20 06:48:38;;;;;;;36.28;12.63;;;;;;;2.35;94.91;100977.47;3475397;28;20046;-45
2020/12/20 06:50:41;;;;;;;39.70;14.60;;;;;;;2.35;95.10;100977.47;3472815;28;20057;-46
2020/12/20 06:52:27;;;;;;;34.72;13.05;;;;;;;2.34;94.91;100980.78;3467573;28;20776;-46
2020/12/20 06:54:09;;;;;;;36.28;13.50;;;;;;;2.33;94.79;100976.47;3469706;28;20049;-45
2020/12/20 06:55:50;;;;;;;36.00;13.55;;;;;;;2.33;94.87;100976.47;3466018;28;20049;-45
2020/12/20 06:57:33;;;;;;;39.60;13.68;;;;;;;2.32;94.93;100973.03;3468197;28;20581;-49
2020/12/20 06:59:42;;;;;;;36.95;12.68;;;;;;;2.32;94.71;100978.16;3468980;28;20068;-47
2020/12/20 07:01:37;;;;;;;34.53;12.45;;;;;;;2.33;94.75;100968.78;3472546;28;20501;-45
2020/12/20 07:03:40;;;;;;;38.83;13.27;;;;;;;2.34;94.76;100970.56;3471068;28;20081;-44
2020/12/20 07:05:36;;;;;;;41.10;12.75;;;;;;;2.35;94.88;100968.91;3475810;28;20045;-45
2020/12/20 07:07:18;;;;;;;33.58;12.45;;;;;;;2.35;94.96;100974.91;3470034;28;20076;-45
2020/12/20 07:09:05;;;;;;;34.58;13.73;;;;;;;2.35;95.02;100977.47;3474910;28;20059;-57
2020/12/20 07:10:48;;;;;;;34.38;12.63;;;;;;;2.35;94.89;100974.03;3473034;28;20057;-57
2020/12/20 07:12:31;;;;;;;40.70;13.77;;;;;;;2.32;94.51;100974.69;3468897;28;20080;-58
2020/12/20 07:14:21;;;;;;;38.67;13.27;;;;;;;2.32;94.92;100980.72;3471955;28;20055;-57
2020/12/20 07:16:07;;;;;;;33.08;12.07;;;;;;;2.29;94.86;100984.75;3473525;28;20797;-58
2020/12/20 07:17:49;;;;;;;33.25;11.90;;;;;;;2.26;94.73;100982.84;3472529;28;20083;-45
2020/12/20 07:19:30;;;;;;;40.58;13.73;;;;;;;2.22;94.66;100990.19;3467321;28;20053;-46
2020/12/20 07:21:27;;;;;;;45.75;15.23;;;;;;;2.21;94.60;100981.66;3471970;28;20049;-45
2020/12/20 07:23:09;;;;;;;44.83;14.40;;;;;;;2.20;94.79;100982.44;3472556;28;20106;-58
2020/12/20 07:24:51;;;;;;;33.72;12.60;;;;;;;2.21;94.65;100988.44;3471775;28;20049;-58
2020/12/20 07:26:32;;;;;;;36.78;13.80;;;;;;;2.23;94.79;100981.75;3472191;28;20539;-58
2020/12/20 07:28:14;;;;;;;47.30;14.75;;;;;;;2.25;94.71;100987.84;3473062;28;20406;-58
2020/12/20 07:29:55;;;;;;;39.83;13.93;;;;;;;2.26;94.87;100992.22;3471304;28;20477;-58
2020/12/20 07:31:37;;;;;;;34.90;12.77;;;;;;;2.23;94.49;100994.56;3472868;28;20486;-57
2020/12/20 07:33:19;;;;;;;31.00;13.02;;;;;;;2.21;94.87;100991.00;3472418;28;20060;-58
2020/12/20 07:35:01;;;;;;;37.55;12.55;;;;;;;2.22;94.58;100991.13;3475878;28;20048;-58
2020/12/20 07:36:42;;;;;;;37.03;14.82;;;;;;;2.23;94.71;100987.75;3473800;28;20425;-57
2020/12/20 07:38:24;;;;;;;37.83;13.73;;;;;;;2.24;94.91;100989.53;3475527;28;20079;-58
2020/12/20 07:40:05;;;;;;;39.70;14.38;;;;;;;2.24;94.39;100994.66;3471910;28;20518;-58
2020/12/20 07:41:47;;;;;;;37.65;14.63;;;;;;;2.25;94.66;100992.97;3467751;28;20045;-58
2020/12/20 07:43:28;;;;;;;40.25;13.98;;;;;;;2.25;94.58;100991.34;3468219;28;20136;-58
2020/12/20 07:45:12;;;;;;;40.53;13.35;;;;;;;2.26;94.70;101002.44;3466709;28;20084;-57
2020/12/20 07:46:54;;;;;;;34.80;13.63;;;;;;;2.26;94.36;100994.78;3465923;28;20065;-57
2020/12/20 07:48:36;;;;;;;44.28;13.82;;;;;;;2.26;94.34;101002.44;3468194;28;20045;-58
2020/12/20 07:50:21;;;;;;;34.38;14.13;;;;;;;2.27;94.69;101007.69;3468642;28;20127;-57
2020/12/20 07:52:08;;;;;;;38.58;14.07;;;;;;;2.29;94.63;101003.56;3468553;28;20052;-58
2020/12/20 07:53:51;;;;;;;34.55;12.65;;;;;;;2.29;94.49;101011.22;3471093;28;20069;-56